sensor_id;sensor_type;location;lat;lon;timestamp;P1;durP1;ratioP1;P2;durP2;ratioP2
71773;SDS011;59607;52.130;5.430;2023-05-21T00:01:06;1.50;;;1.38;;
71773;SDS011;59607;52.130;5.430;2023-05-21T00:03:59;3.05;;;1.27;;
71773;SDS011;59607;52.130;5.430;2023-05-21T00:06:26;2.90;;;1.37;;
71773;SDS011;59607;52.130;5.430;2023-05-21T00:08:55;3.05;;;1.40;;
71773;SDS011;59607;52.130;5.430;2023-05-21T00:11:21;1.98;;;1.20;;
71773;SDS011;59607;52.130;5.430;2023-05-21T00:13:47;1.77;;;1.52;;
71773;SDS011;59607;52.130;5.430;2023-05-21T00:16:15;1.80;;;1.50;;
71773;SDS011;59607;52.130;5.430;2023-05-21T00:18:55;1.70;;;1.20;;
71773;SDS011;59607;52.130;5.430;2023-05-21T00:21:28;1.77;;;1.23;;
71773;SDS011;59607;52.130;5.430;2023-05-21T00:23:56;2.55;;;1.40;;
71773;SDS011;59607;52.130;5.430;2023-05-21T00:26:24;2.17;;;1.42;;
71773;SDS011;59607;52.130;5.430;2023-05-21T00:28:55;6.63;;;1.52;;
71773;SDS011;59607;52.130;5.430;2023-05-21T00:31:21;2.57;;;1.77;;
71773;SDS011;59607;52.130;5.430;2023-05-21T00:34:02;2.88;;;1.60;;
71773;SDS011;59607;52.130;5.430;2023-05-21T00:36:39;1.75;;;1.20;;
71773;SDS011;59607;52.130;5.430;2023-05-21T00:39:12;3.55;;;1.48;;
71773;SDS011;59607;52.130;5.430;2023-05-21T00:41:47;2.03;;;1.33;;
71773;SDS011;59607;52.130;5.430;2023-05-21T00:44:29;5.77;;;1.43;;
71773;SDS011;59607;52.130;5.430;2023-05-21T00:47:02;3.47;;;1.60;;
71773;SDS011;59607;52.130;5.430;2023-05-21T00:49:29;1.65;;;1.55;;
71773;SDS011;59607;52.130;5.430;2023-05-21T00:51:59;3.50;;;1.55;;
71773;SDS011;59607;52.130;5.430;2023-05-21T00:54:30;5.22;;;1.33;;
71773;SDS011;59607;52.130;5.430;2023-05-21T00:57:00;2.40;;;1.80;;
71773;SDS011;59607;52.130;5.430;2023-05-21T00:59:31;2.05;;;1.60;;
71773;SDS011;59607;52.130;5.430;2023-05-21T01:02:04;3.50;;;1.70;;
71773;SDS011;59607;52.130;5.430;2023-05-21T01:04:34;2.55;;;1.58;;
71773;SDS011;59607;52.130;5.430;2023-05-21T01:07:01;3.25;;;1.58;;
71773;SDS011;59607;52.130;5.430;2023-05-21T01:09:41;1.90;;;1.70;;
71773;SDS011;59607;52.130;5.430;2023-05-21T01:12:18;2.58;;;1.70;;
71773;SDS011;59607;52.130;5.430;2023-05-21T01:14:46;3.42;;;1.80;;
71773;SDS011;59607;52.130;5.430;2023-05-21T01:17:18;2.50;;;1.77;;
71773;SDS011;59607;52.130;5.430;2023-05-21T01:19:49;2.28;;;2.00;;
71773;SDS011;59607;52.130;5.430;2023-05-21T01:22:20;2.20;;;2.00;;
71773;SDS011;59607;52.130;5.430;2023-05-21T01:24:55;2.42;;;2.05;;
71773;SDS011;59607;52.130;5.430;2023-05-21T01:27:22;3.35;;;2.00;;
71773;SDS011;59607;52.130;5.430;2023-05-21T01:29:48;4.38;;;2.20;;
71773;SDS011;59607;52.130;5.430;2023-05-21T01:35:25;3.57;;;2.03;;
71773;SDS011;59607;52.130;5.430;2023-05-21T01:40:55;4.65;;;1.95;;
71773;SDS011;59607;52.130;5.430;2023-05-21T01:43:26;4.32;;;2.13;;
71773;SDS011;59607;52.130;5.430;2023-05-21T01:45:56;2.47;;;1.80;;
71773;SDS011;59607;52.130;5.430;2023-05-21T01:48:26;4.07;;;2.30;;
71773;SDS011;59607;52.130;5.430;2023-05-21T01:51:04;2.85;;;2.08;;
71773;SDS011;59607;52.130;5.430;2023-05-21T01:53:46;2.80;;;1.70;;
71773;SDS011;59607;52.130;5.430;2023-05-21T01:56:12;2.58;;;1.70;;
71773;SDS011;59607;52.130;5.430;2023-05-21T01:58:48;3.33;;;2.47;;
71773;SDS011;59607;52.130;5.430;2023-05-21T02:01:29;4.97;;;2.27;;
71773;SDS011;59607;52.130;5.430;2023-05-21T02:03:58;3.22;;;2.45;;
71773;SDS011;59607;52.130;5.430;2023-05-21T02:06:28;3.55;;;2.30;;
71773;SDS011;59607;52.130;5.430;2023-05-21T02:09:01;5.20;;;2.38;;
71773;SDS011;59607;52.130;5.430;2023-05-21T02:11:33;2.10;;;1.90;;
71773;SDS011;59607;52.130;5.430;2023-05-21T02:14:09;3.10;;;2.63;;
71773;SDS011;59607;52.130;5.430;2023-05-21T02:16:35;3.25;;;2.33;;
71773;SDS011;59607;52.130;5.430;2023-05-21T02:19:11;2.80;;;2.60;;
71773;SDS011;59607;52.130;5.430;2023-05-21T02:21:37;3.15;;;2.17;;
71773;SDS011;59607;52.130;5.430;2023-05-21T02:24:04;3.97;;;2.78;;
71773;SDS011;59607;52.130;5.430;2023-05-21T02:26:35;2.93;;;1.90;;
71773;SDS011;59607;52.130;5.430;2023-05-21T02:29:02;2.97;;;2.67;;
71773;SDS011;59607;52.130;5.430;2023-05-21T02:31:29;4.47;;;2.45;;
71773;SDS011;59607;52.130;5.430;2023-05-21T02:33:59;9.27;;;2.65;;
71773;SDS011;59607;52.130;5.430;2023-05-21T02:36:25;2.78;;;2.58;;
71773;SDS011;59607;52.130;5.430;2023-05-21T02:38:56;3.63;;;2.40;;
71773;SDS011;59607;52.130;5.430;2023-05-21T02:41:23;3.22;;;2.65;;
71773;SDS011;59607;52.130;5.430;2023-05-21T02:43:49;3.83;;;2.47;;
71773;SDS011;59607;52.130;5.430;2023-05-21T02:46:16;6.32;;;3.10;;
71773;SDS011;59607;52.130;5.430;2023-05-21T02:48:47;3.60;;;3.03;;
71773;SDS011;59607;52.130;5.430;2023-05-21T02:51:13;2.97;;;2.67;;
71773;SDS011;59607;52.130;5.430;2023-05-21T02:53:46;3.28;;;2.60;;
71773;SDS011;59607;52.130;5.430;2023-05-21T02:56:15;3.00;;;2.67;;
71773;SDS011;59607;52.130;5.430;2023-05-21T02:58:44;3.05;;;2.65;;
71773;SDS011;59607;52.130;5.430;2023-05-21T03:01:16;3.08;;;2.67;;
71773;SDS011;59607;52.130;5.430;2023-05-21T03:03:43;3.13;;;2.87;;
71773;SDS011;59607;52.130;5.430;2023-05-21T03:06:10;3.22;;;2.92;;
71773;SDS011;59607;52.130;5.430;2023-05-21T03:08:39;3.28;;;2.72;;
71773;SDS011;59607;52.130;5.430;2023-05-21T03:11:06;4.00;;;2.55;;
71773;SDS011;59607;52.130;5.430;2023-05-21T03:13:32;5.82;;;2.92;;
71773;SDS011;59607;52.130;5.430;2023-05-21T03:16:02;3.07;;;2.70;;
71773;SDS011;59607;52.130;5.430;2023-05-21T03:18:29;7.13;;;3.10;;
71773;SDS011;59607;52.130;5.430;2023-05-21T03:20:56;3.67;;;2.40;;
71773;SDS011;59607;52.130;5.430;2023-05-21T03:23:33;4.53;;;2.88;;
71773;SDS011;59607;52.130;5.430;2023-05-21T03:26:08;3.13;;;2.70;;
71773;SDS011;59607;52.130;5.430;2023-05-21T03:28:34;4.47;;;2.70;;
71773;SDS011;59607;52.130;5.430;2023-05-21T03:31:07;3.88;;;2.90;;
71773;SDS011;59607;52.130;5.430;2023-05-21T03:33:40;2.78;;;2.50;;
71773;SDS011;59607;52.130;5.430;2023-05-21T03:36:13;3.08;;;2.78;;
71773;SDS011;59607;52.130;5.430;2023-05-21T03:38:40;4.18;;;2.72;;
71773;SDS011;59607;52.130;5.430;2023-05-21T03:41:09;7.10;;;3.00;;
71773;SDS011;59607;52.130;5.430;2023-05-21T03:43:40;3.20;;;2.75;;
71773;SDS011;59607;52.130;5.430;2023-05-21T03:46:09;3.28;;;2.97;;
71773;SDS011;59607;52.130;5.430;2023-05-21T03:48:53;3.90;;;2.80;;
71773;SDS011;59607;52.130;5.430;2023-05-21T03:51:22;3.15;;;2.85;;
71773;SDS011;59607;52.130;5.430;2023-05-21T03:53:50;2.67;;;2.47;;
71773;SDS011;59607;52.130;5.430;2023-05-21T03:56:27;5.38;;;2.60;;
71773;SDS011;59607;52.130;5.430;2023-05-21T03:58:59;6.43;;;2.67;;
71773;SDS011;59607;52.130;5.430;2023-05-21T04:01:27;3.28;;;2.33;;
71773;SDS011;59607;52.130;5.430;2023-05-21T04:03:53;2.83;;;2.60;;
71773;SDS011;59607;52.130;5.430;2023-05-21T04:06:23;2.70;;;2.50;;
71773;SDS011;59607;52.130;5.430;2023-05-21T04:08:53;4.38;;;2.70;;
71773;SDS011;59607;52.130;5.430;2023-05-21T04:11:20;3.40;;;2.70;;
71773;SDS011;59607;52.130;5.430;2023-05-21T04:13:46;2.90;;;2.47;;
71773;SDS011;59607;52.130;5.430;2023-05-21T04:16:16;2.50;;;2.22;;
71773;SDS011;59607;52.130;5.430;2023-05-21T04:18:44;3.70;;;2.47;;
71773;SDS011;59607;52.130;5.430;2023-05-21T04:21:14;2.67;;;2.40;;
71773;SDS011;59607;52.130;5.430;2023-05-21T04:23:43;3.13;;;2.83;;
71773;SDS011;59607;52.130;5.430;2023-05-21T04:26:10;3.45;;;2.58;;
71773;SDS011;59607;52.130;5.430;2023-05-21T04:28:44;3.47;;;2.88;;
71773;SDS011;59607;52.130;5.430;2023-05-21T04:31:11;2.97;;;2.67;;
71773;SDS011;59607;52.130;5.430;2023-05-21T04:33:41;3.90;;;2.67;;
71773;SDS011;59607;52.130;5.430;2023-05-21T04:36:11;4.03;;;3.00;;
71773;SDS011;59607;52.130;5.430;2023-05-21T04:38:41;6.38;;;2.90;;
71773;SDS011;59607;52.130;5.430;2023-05-21T04:41:13;3.00;;;2.55;;
71773;SDS011;59607;52.130;5.430;2023-05-21T04:43:39;4.43;;;2.70;;
71773;SDS011;59607;52.130;5.430;2023-05-21T04:46:14;4.28;;;2.65;;
71773;SDS011;59607;52.130;5.430;2023-05-21T04:48:41;5.53;;;2.90;;
71773;SDS011;59607;52.130;5.430;2023-05-21T04:51:15;4.32;;;2.60;;
71773;SDS011;59607;52.130;5.430;2023-05-21T04:53:41;3.65;;;2.47;;
71773;SDS011;59607;52.130;5.430;2023-05-21T04:56:08;2.90;;;2.60;;
71773;SDS011;59607;52.130;5.430;2023-05-21T04:58:40;3.55;;;2.53;;
71773;SDS011;59607;52.130;5.430;2023-05-21T05:01:07;6.10;;;2.80;;
71773;SDS011;59607;52.130;5.430;2023-05-21T05:03:42;3.17;;;2.67;;
71773;SDS011;59607;52.130;5.430;2023-05-21T05:06:12;5.10;;;2.90;;
71773;SDS011;59607;52.130;5.430;2023-05-21T05:08:45;4.33;;;2.80;;
71773;SDS011;59607;52.130;5.430;2023-05-21T05:11:11;3.30;;;2.97;;
71773;SDS011;59607;52.130;5.430;2023-05-21T05:13:44;4.28;;;2.58;;
71773;SDS011;59607;52.130;5.430;2023-05-21T05:16:14;3.45;;;2.63;;
71773;SDS011;59607;52.130;5.430;2023-05-21T05:18:57;5.85;;;2.97;;
71773;SDS011;59607;52.130;5.430;2023-05-21T05:21:39;4.57;;;3.17;;
71773;SDS011;59607;52.130;5.430;2023-05-21T05:24:14;3.30;;;3.00;;
71773;SDS011;59607;52.130;5.430;2023-05-21T05:26:41;3.17;;;2.80;;
71773;SDS011;59607;52.130;5.430;2023-05-21T05:29:07;6.70;;;2.92;;
71773;SDS011;59607;52.130;5.430;2023-05-21T05:31:38;3.20;;;2.67;;
71773;SDS011;59607;52.130;5.430;2023-05-21T05:34:04;5.33;;;2.90;;
71773;SDS011;59607;52.130;5.430;2023-05-21T05:36:34;5.57;;;2.92;;
71773;SDS011;59607;52.130;5.430;2023-05-21T05:39:03;3.05;;;2.65;;
71773;SDS011;59607;52.130;5.430;2023-05-21T05:41:30;3.30;;;2.38;;
71773;SDS011;59607;52.130;5.430;2023-05-21T05:43:58;4.47;;;2.80;;
71773;SDS011;59607;52.130;5.430;2023-05-21T05:46:25;3.93;;;2.80;;
71773;SDS011;59607;52.130;5.430;2023-05-21T05:48:52;3.22;;;2.92;;
71773;SDS011;59607;52.130;5.430;2023-05-21T05:51:18;6.90;;;3.55;;
71773;SDS011;59607;52.130;5.430;2023-05-21T05:53:51;4.53;;;3.10;;
71773;SDS011;59607;52.130;5.430;2023-05-21T05:56:17;3.72;;;3.05;;
71773;SDS011;59607;52.130;5.430;2023-05-21T05:58:53;3.30;;;3.00;;
71773;SDS011;59607;52.130;5.430;2023-05-21T06:01:19;5.03;;;2.97;;
71773;SDS011;59607;52.130;5.430;2023-05-21T06:03:50;3.53;;;2.60;;
71773;SDS011;59607;52.130;5.430;2023-05-21T06:06:22;3.70;;;3.17;;
71773;SDS011;59607;52.130;5.430;2023-05-21T06:08:49;7.13;;;3.25;;
71773;SDS011;59607;52.130;5.430;2023-05-21T06:11:21;6.13;;;3.13;;
71773;SDS011;59607;52.130;5.430;2023-05-21T06:13:49;3.58;;;2.70;;
71773;SDS011;59607;52.130;5.430;2023-05-21T06:16:19;3.67;;;3.05;;
71773;SDS011;59607;52.130;5.430;2023-05-21T06:18:48;4.03;;;3.65;;
71773;SDS011;59607;52.130;5.430;2023-05-21T06:21:15;4.15;;;2.95;;
71773;SDS011;59607;52.130;5.430;2023-05-21T06:23:48;4.83;;;3.03;;
71773;SDS011;59607;52.130;5.430;2023-05-21T06:26:16;3.67;;;3.00;;
71773;SDS011;59607;52.130;5.430;2023-05-21T06:28:49;4.38;;;3.03;;
71773;SDS011;59607;52.130;5.430;2023-05-21T06:31:15;4.97;;;3.35;;
71773;SDS011;59607;52.130;5.430;2023-05-21T06:33:42;5.28;;;3.13;;
71773;SDS011;59607;52.130;5.430;2023-05-21T06:36:28;5.83;;;3.73;;
71773;SDS011;59607;52.130;5.430;2023-05-21T06:38:55;5.50;;;3.78;;
71773;SDS011;59607;52.130;5.430;2023-05-21T06:41:22;7.78;;;3.63;;
71773;SDS011;59607;52.130;5.430;2023-05-21T06:43:54;3.95;;;3.55;;
71773;SDS011;59607;52.130;5.430;2023-05-21T06:46:25;6.32;;;3.88;;
71773;SDS011;59607;52.130;5.430;2023-05-21T06:48:57;4.00;;;3.60;;
71773;SDS011;59607;52.130;5.430;2023-05-21T06:51:26;4.10;;;2.78;;
71773;SDS011;59607;52.130;5.430;2023-05-21T06:53:53;3.85;;;3.50;;
71773;SDS011;59607;52.130;5.430;2023-05-21T06:56:25;5.43;;;3.22;;
71773;SDS011;59607;52.130;5.430;2023-05-21T06:58:51;6.25;;;3.22;;
71773;SDS011;59607;52.130;5.430;2023-05-21T07:01:21;4.27;;;3.70;;
71773;SDS011;59607;52.130;5.430;2023-05-21T07:03:48;3.55;;;3.25;;
71773;SDS011;59607;52.130;5.430;2023-05-21T07:06:15;4.65;;;3.67;;
71773;SDS011;59607;52.130;5.430;2023-05-21T07:08:42;5.22;;;4.20;;
71773;SDS011;59607;52.130;5.430;2023-05-21T07:11:16;5.53;;;3.72;;
71773;SDS011;59607;52.130;5.430;2023-05-21T07:13:46;4.87;;;3.53;;
71773;SDS011;59607;52.130;5.430;2023-05-21T07:16:17;4.18;;;3.75;;
71773;SDS011;59607;52.130;5.430;2023-05-21T07:18:44;4.28;;;3.55;;
71773;SDS011;59607;52.130;5.430;2023-05-21T07:21:12;6.68;;;3.80;;
71773;SDS011;59607;52.130;5.430;2023-05-21T07:23:44;7.22;;;3.88;;
71773;SDS011;59607;52.130;5.430;2023-05-21T07:26:10;4.97;;;4.00;;
71773;SDS011;59607;52.130;5.430;2023-05-21T07:28:37;3.88;;;3.53;;
71773;SDS011;59607;52.130;5.430;2023-05-21T07:31:06;4.28;;;3.33;;
71773;SDS011;59607;52.130;5.430;2023-05-21T07:33:39;5.78;;;3.45;;
71773;SDS011;59607;52.130;5.430;2023-05-21T07:36:07;6.38;;;3.60;;
71773;SDS011;59607;52.130;5.430;2023-05-21T07:38:33;4.37;;;3.20;;
71773;SDS011;59607;52.130;5.430;2023-05-21T07:41:00;4.63;;;3.72;;
71773;SDS011;59607;52.130;5.430;2023-05-21T07:43:26;6.00;;;3.78;;
71773;SDS011;59607;52.130;5.430;2023-05-21T07:45:53;6.10;;;3.70;;
71773;SDS011;59607;52.130;5.430;2023-05-21T07:48:19;5.93;;;3.60;;
71773;SDS011;59607;52.130;5.430;2023-05-21T07:50:46;4.20;;;3.77;;
71773;SDS011;59607;52.130;5.430;2023-05-21T07:53:23;4.10;;;3.53;;
71773;SDS011;59607;52.130;5.430;2023-05-21T07:55:52;5.38;;;3.60;;
71773;SDS011;59607;52.130;5.430;2023-05-21T07:58:21;3.95;;;3.55;;
71773;SDS011;59607;52.130;5.430;2023-05-21T08:00:48;4.25;;;3.60;;
71773;SDS011;59607;52.130;5.430;2023-05-21T08:03:30;4.27;;;3.37;;
71773;SDS011;59607;52.130;5.430;2023-05-21T08:06:12;4.10;;;3.75;;
71773;SDS011;59607;52.130;5.430;2023-05-21T08:08:52;4.45;;;3.58;;
71773;SDS011;59607;52.130;5.430;2023-05-21T08:11:19;3.83;;;3.53;;
71773;SDS011;59607;52.130;5.430;2023-05-21T08:13:49;4.18;;;3.78;;
71773;SDS011;59607;52.130;5.430;2023-05-21T08:16:15;4.97;;;3.30;;
71773;SDS011;59607;52.130;5.430;2023-05-21T08:18:42;5.32;;;3.53;;
71773;SDS011;59607;52.130;5.430;2023-05-21T08:21:14;6.93;;;3.90;;
71773;SDS011;59607;52.130;5.430;2023-05-21T08:23:43;6.20;;;3.70;;
71773;SDS011;59607;52.130;5.430;2023-05-21T08:26:10;5.10;;;3.97;;
71773;SDS011;59607;52.130;5.430;2023-05-21T08:28:37;5.67;;;4.00;;
71773;SDS011;59607;52.130;5.430;2023-05-21T08:31:04;4.97;;;3.42;;
71773;SDS011;59607;52.130;5.430;2023-05-21T08:33:36;4.28;;;3.90;;
71773;SDS011;59607;52.130;5.430;2023-05-21T08:36:17;5.60;;;3.97;;
71773;SDS011;59607;52.130;5.430;2023-05-21T08:38:46;5.32;;;4.05;;
71773;SDS011;59607;52.130;5.430;2023-05-21T08:41:14;5.87;;;4.07;;
71773;SDS011;59607;52.130;5.430;2023-05-21T08:43:45;4.70;;;4.30;;
71773;SDS011;59607;52.130;5.430;2023-05-21T08:46:15;4.75;;;3.80;;
71773;SDS011;59607;52.130;5.430;2023-05-21T08:48:48;3.65;;;3.35;;
71773;SDS011;59607;52.130;5.430;2023-05-21T08:51:20;5.40;;;4.03;;
71773;SDS011;59607;52.130;5.430;2023-05-21T08:53:47;5.23;;;3.80;;
71773;SDS011;59607;52.130;5.430;2023-05-21T08:56:18;8.02;;;4.03;;
71773;SDS011;59607;52.130;5.430;2023-05-21T08:58:48;5.90;;;3.70;;
71773;SDS011;59607;52.130;5.430;2023-05-21T09:01:19;4.93;;;4.05;;
71773;SDS011;59607;52.130;5.430;2023-05-21T09:03:51;4.28;;;3.88;;
71773;SDS011;59607;52.130;5.430;2023-05-21T09:06:44;6.10;;;3.83;;
71773;SDS011;59607;52.130;5.430;2023-05-21T09:09:24;4.78;;;4.25;;
71773;SDS011;59607;52.130;5.430;2023-05-21T09:12:23;6.05;;;3.67;;
71773;SDS011;59607;52.130;5.430;2023-05-21T09:14:51;4.75;;;4.15;;
71773;SDS011;59607;52.130;5.430;2023-05-21T09:17:46;6.20;;;4.50;;
71773;SDS011;59607;52.130;5.430;2023-05-21T09:20:14;4.00;;;3.70;;
71773;SDS011;59607;52.130;5.430;2023-05-21T09:22:55;5.22;;;3.70;;
71773;SDS011;59607;52.130;5.430;2023-05-21T09:25:25;5.22;;;3.78;;
71773;SDS011;59607;52.130;5.430;2023-05-21T09:28:01;3.92;;;3.47;;
71773;SDS011;59607;52.130;5.430;2023-05-21T09:30:27;4.10;;;3.70;;
71773;SDS011;59607;52.130;5.430;2023-05-21T09:32:58;8.33;;;4.47;;
71773;SDS011;59607;52.130;5.430;2023-05-21T09:35:25;5.15;;;4.30;;
71773;SDS011;59607;52.130;5.430;2023-05-21T09:37:58;4.60;;;4.20;;
71773;SDS011;59607;52.130;5.430;2023-05-21T09:40:24;4.20;;;3.80;;
71773;SDS011;59607;52.130;5.430;2023-05-21T09:42:55;4.18;;;3.85;;
71773;SDS011;59607;52.130;5.430;2023-05-21T09:45:24;4.40;;;4.00;;
71773;SDS011;59607;52.130;5.430;2023-05-21T09:47:58;4.60;;;4.20;;
71773;SDS011;59607;52.130;5.430;2023-05-21T09:50:27;5.18;;;4.15;;
71773;SDS011;59607;52.130;5.430;2023-05-21T09:52:56;11.23;;;7.03;;
71773;SDS011;59607;52.130;5.430;2023-05-21T09:55:27;4.65;;;4.25;;
71773;SDS011;59607;52.130;5.430;2023-05-21T09:57:53;4.97;;;4.53;;
71773;SDS011;59607;52.130;5.430;2023-05-21T10:00:31;6.35;;;4.80;;
71773;SDS011;59607;52.130;5.430;2023-05-21T10:03:01;4.35;;;4.05;;
71773;SDS011;59607;52.130;5.430;2023-05-21T10:05:36;7.72;;;3.92;;
71773;SDS011;59607;52.130;5.430;2023-05-21T10:08:04;4.72;;;4.10;;
71773;SDS011;59607;52.130;5.430;2023-05-21T10:10:42;4.47;;;4.13;;
71773;SDS011;59607;52.130;5.430;2023-05-21T10:13:31;4.43;;;4.05;;
71773;SDS011;59607;52.130;5.430;2023-05-21T10:16:04;4.55;;;4.15;;
71773;SDS011;59607;52.130;5.430;2023-05-21T10:18:39;4.50;;;3.50;;
71773;SDS011;59607;52.130;5.430;2023-05-21T10:21:11;4.05;;;3.75;;
71773;SDS011;59607;52.130;5.430;2023-05-21T10:23:41;4.13;;;3.77;;
71773;SDS011;59607;52.130;5.430;2023-05-21T10:26:09;4.10;;;3.80;;
71773;SDS011;59607;52.130;5.430;2023-05-21T10:28:40;4.68;;;4.30;;
71773;SDS011;59607;52.130;5.430;2023-05-21T10:31:10;5.28;;;4.30;;
71773;SDS011;59607;52.130;5.430;2023-05-21T10:33:40;4.53;;;3.80;;
71773;SDS011;59607;52.130;5.430;2023-05-21T10:36:13;5.17;;;4.10;;
71773;SDS011;59607;52.130;5.430;2023-05-21T10:38:45;4.85;;;3.70;;
71773;SDS011;59607;52.130;5.430;2023-05-21T10:41:14;5.38;;;3.78;;
71773;SDS011;59607;52.130;5.430;2023-05-21T10:43:47;5.90;;;3.72;;
71773;SDS011;59607;52.130;5.430;2023-05-21T10:46:24;6.28;;;3.70;;
71773;SDS011;59607;52.130;5.430;2023-05-21T10:49:44;4.30;;;3.87;;
71773;SDS011;59607;52.130;5.430;2023-05-21T11:00:55;4.35;;;3.97;;
71773;SDS011;59607;52.130;5.430;2023-05-21T11:03:28;4.20;;;3.80;;
71773;SDS011;59607;52.130;5.430;2023-05-21T11:06:05;5.85;;;5.35;;
71773;SDS011;59607;52.130;5.430;2023-05-21T11:08:33;5.15;;;3.88;;
71773;SDS011;59607;52.130;5.430;2023-05-21T11:11:38;4.13;;;3.72;;
71773;SDS011;59607;52.130;5.430;2023-05-21T11:17:48;4.70;;;4.30;;
71773;SDS011;59607;52.130;5.430;2023-05-21T11:20:07;6.95;;;4.43;;
71773;SDS011;59607;52.130;5.430;2023-05-21T11:22:41;6.38;;;4.43;;
71773;SDS011;59607;52.130;5.430;2023-05-21T11:25:19;5.25;;;4.85;;
71773;SDS011;59607;52.130;5.430;2023-05-21T11:27:46;8.25;;;4.65;;
71773;SDS011;59607;52.130;5.430;2023-05-21T11:30:27;5.60;;;5.10;;
71773;SDS011;59607;52.130;5.430;2023-05-21T11:38:12;5.18;;;4.70;;
71773;SDS011;59607;52.130;5.430;2023-05-21T11:40:48;5.20;;;4.80;;
71773;SDS011;59607;52.130;5.430;2023-05-21T11:43:19;5.33;;;4.90;;
71773;SDS011;59607;52.130;5.430;2023-05-21T11:45:46;5.00;;;4.60;;
71773;SDS011;59607;52.130;5.430;2023-05-21T11:48:12;7.53;;;5.45;;
71773;SDS011;59607;52.130;5.430;2023-05-21T11:50:42;5.38;;;4.88;;
71773;SDS011;59607;52.130;5.430;2023-05-21T11:53:10;7.55;;;5.93;;
71773;SDS011;59607;52.130;5.430;2023-05-21T11:55:37;6.00;;;5.27;;
71773;SDS011;59607;52.130;5.430;2023-05-21T11:58:29;6.07;;;5.47;;
71773;SDS011;59607;52.130;5.430;2023-05-21T12:00:59;5.75;;;5.25;;
71773;SDS011;59607;52.130;5.430;2023-05-21T12:03:26;6.88;;;5.10;;
71773;SDS011;59607;52.130;5.430;2023-05-21T12:06:03;6.07;;;5.47;;
71773;SDS011;59607;52.130;5.430;2023-05-21T12:08:40;9.27;;;5.80;;
71773;SDS011;59607;52.130;5.430;2023-05-21T12:11:07;7.57;;;5.47;;
71773;SDS011;59607;52.130;5.430;2023-05-21T12:13:41;6.43;;;5.88;;
71773;SDS011;59607;52.130;5.430;2023-05-21T12:16:09;8.18;;;5.63;;
71773;SDS011;59607;52.130;5.430;2023-05-21T12:18:35;7.60;;;6.90;;
71773;SDS011;59607;52.130;5.430;2023-05-21T12:21:02;8.90;;;5.90;;
71773;SDS011;59607;52.130;5.430;2023-05-21T12:23:32;6.57;;;6.03;;
71773;SDS011;59607;52.130;5.430;2023-05-21T12:25:58;6.93;;;5.50;;
71773;SDS011;59607;52.130;5.430;2023-05-21T12:28:31;5.63;;;5.22;;
71773;SDS011;59607;52.130;5.430;2023-05-21T12:30:59;7.07;;;6.32;;
71773;SDS011;59607;52.130;5.430;2023-05-21T12:33:44;8.07;;;6.20;;
71773;SDS011;59607;52.130;5.430;2023-05-21T12:36:22;10.13;;;5.90;;
71773;SDS011;59607;52.130;5.430;2023-05-21T12:38:57;8.27;;;6.13;;
71773;SDS011;59607;52.130;5.430;2023-05-21T12:41:24;6.38;;;5.55;;
71773;SDS011;59607;52.130;5.430;2023-05-21T12:43:54;8.45;;;6.00;;
71773;SDS011;59607;52.130;5.430;2023-05-21T12:46:24;6.77;;;6.13;;
71773;SDS011;59607;52.130;5.430;2023-05-21T12:48:52;7.32;;;5.80;;
71773;SDS011;59607;52.130;5.430;2023-05-21T12:51:38;7.85;;;6.57;;
71773;SDS011;59607;52.130;5.430;2023-05-21T12:54:10;6.93;;;6.40;;
71773;SDS011;59607;52.130;5.430;2023-05-21T12:56:47;9.32;;;6.60;;
71773;SDS011;59607;52.130;5.430;2023-05-21T12:59:13;7.23;;;6.40;;
71773;SDS011;59607;52.130;5.430;2023-05-21T13:01:59;8.70;;;7.50;;
71773;SDS011;59607;52.130;5.430;2023-05-21T13:04:31;6.90;;;6.30;;
71773;SDS011;59607;52.130;5.430;2023-05-21T13:07:01;6.47;;;5.85;;
71773;SDS011;59607;52.130;5.430;2023-05-21T13:09:48;6.28;;;5.75;;
71773;SDS011;59607;52.130;5.430;2023-05-21T13:12:19;6.93;;;6.33;;
71773;SDS011;59607;52.130;5.430;2023-05-21T13:15:09;6.75;;;6.13;;
71773;SDS011;59607;52.130;5.430;2023-05-21T13:17:36;8.00;;;5.90;;
71773;SDS011;59607;52.130;5.430;2023-05-21T13:22:54;6.20;;;5.70;;
71773;SDS011;59607;52.130;5.430;2023-05-21T13:25:21;8.63;;;6.83;;
71773;SDS011;59607;52.130;5.430;2023-05-21T13:27:50;7.35;;;6.63;;
71773;SDS011;59607;52.130;5.430;2023-05-21T13:30:32;8.25;;;7.05;;
71773;SDS011;59607;52.130;5.430;2023-05-21T13:33:20;7.15;;;6.13;;
71773;SDS011;59607;52.130;5.430;2023-05-21T13:35:51;6.45;;;5.95;;
71773;SDS011;59607;52.130;5.430;2023-05-21T13:38:24;7.27;;;6.53;;
71773;SDS011;59607;52.130;5.430;2023-05-21T13:40:52;7.60;;;7.00;;
71773;SDS011;59607;52.130;5.430;2023-05-21T13:43:19;7.57;;;6.82;;
71773;SDS011;59607;52.130;5.430;2023-05-21T13:45:46;8.13;;;6.43;;
71773;SDS011;59607;52.130;5.430;2023-05-21T13:48:16;7.60;;;6.28;;
71773;SDS011;59607;52.130;5.430;2023-05-21T13:50:43;7.83;;;7.03;;
71773;SDS011;59607;52.130;5.430;2023-05-21T13:53:18;7.13;;;6.28;;
71773;SDS011;59607;52.130;5.430;2023-05-21T13:55:44;7.50;;;6.80;;
71773;SDS011;59607;52.130;5.430;2023-05-21T13:58:14;9.02;;;6.00;;
71773;SDS011;59607;52.130;5.430;2023-05-21T14:00:40;7.63;;;6.22;;
71773;SDS011;59607;52.130;5.430;2023-05-21T14:03:08;9.50;;;6.80;;
71773;SDS011;59607;52.130;5.430;2023-05-21T14:05:43;7.00;;;6.13;;
71773;SDS011;59607;52.130;5.430;2023-05-21T14:08:09;8.75;;;6.03;;
71773;SDS011;59607;52.130;5.430;2023-05-21T14:10:46;7.78;;;5.55;;
71773;SDS011;59607;52.130;5.430;2023-05-21T14:13:13;9.88;;;6.55;;
71773;SDS011;59607;52.130;5.430;2023-05-21T14:15:48;7.47;;;6.70;;
71773;SDS011;59607;52.130;5.430;2023-05-21T14:18:14;6.88;;;6.28;;
71773;SDS011;59607;52.130;5.430;2023-05-21T14:20:41;6.57;;;5.93;;
71773;SDS011;59607;52.130;5.430;2023-05-21T14:23:07;8.73;;;6.05;;
71773;SDS011;59607;52.130;5.430;2023-05-21T14:25:37;7.28;;;5.82;;
71773;SDS011;59607;52.130;5.430;2023-05-21T14:28:07;6.43;;;5.73;;
71773;SDS011;59607;52.130;5.430;2023-05-21T14:30:36;8.73;;;6.40;;
71773;SDS011;59607;52.130;5.430;2023-05-21T14:33:03;6.80;;;6.28;;
71773;SDS011;59607;52.130;5.430;2023-05-21T14:35:32;7.82;;;6.55;;
71773;SDS011;59607;52.130;5.430;2023-05-21T14:37:59;7.75;;;6.97;;
71773;SDS011;59607;52.130;5.430;2023-05-21T14:40:26;7.30;;;6.60;;
71773;SDS011;59607;52.130;5.430;2023-05-21T14:42:55;7.55;;;6.10;;
71773;SDS011;59607;52.130;5.430;2023-05-21T14:45:26;7.22;;;6.57;;
71773;SDS011;59607;52.130;5.430;2023-05-21T14:47:56;8.88;;;5.95;;
71773;SDS011;59607;52.130;5.430;2023-05-21T14:50:28;7.60;;;6.28;;
71773;SDS011;59607;52.130;5.430;2023-05-21T14:52:55;5.77;;;4.10;;
71773;SDS011;59607;52.130;5.430;2023-05-21T14:55:22;7.05;;;6.30;;
71773;SDS011;59607;52.130;5.430;2023-05-21T14:57:51;6.70;;;5.82;;
71773;SDS011;59607;52.130;5.430;2023-05-21T15:00:18;7.22;;;6.18;;
71773;SDS011;59607;52.130;5.430;2023-05-21T15:02:47;4.72;;;3.97;;
71773;SDS011;59607;52.130;5.430;2023-05-21T15:05:17;5.87;;;4.40;;
71773;SDS011;59607;52.130;5.430;2023-05-21T15:07:47;6.93;;;5.72;;
71773;SDS011;59607;52.130;5.430;2023-05-21T15:10:13;7.68;;;5.53;;
71773;SDS011;59607;52.130;5.430;2023-05-21T15:12:43;5.18;;;4.35;;
71773;SDS011;59607;52.130;5.430;2023-05-21T15:15:10;5.28;;;3.50;;
71773;SDS011;59607;52.130;5.430;2023-05-21T15:17:42;6.87;;;4.03;;
71773;SDS011;59607;52.130;5.430;2023-05-21T15:20:09;4.63;;;3.78;;
71773;SDS011;59607;52.130;5.430;2023-05-21T15:22:41;7.05;;;4.28;;
71773;SDS011;59607;52.130;5.430;2023-05-21T15:25:10;6.10;;;3.72;;
71773;SDS011;59607;52.130;5.430;2023-05-21T15:27:39;6.55;;;5.40;;
71773;SDS011;59607;52.130;5.430;2023-05-21T15:30:08;4.83;;;3.87;;
71773;SDS011;59607;52.130;5.430;2023-05-21T15:32:35;5.22;;;3.55;;
71773;SDS011;59607;52.130;5.430;2023-05-21T15:35:01;7.90;;;3.63;;
71773;SDS011;59607;52.130;5.430;2023-05-21T15:37:33;7.20;;;4.18;;